Shawnee, Wyoming
Current Conditions -  °F | °C
As of 5:53 AM on Monday 20 Oct 2014 (Local Time) from KDGW Reporting Station
Clear Clear  
Wind Chill: 39°   Ceiling: Unl
Heat Index: 39°   Visibility: NA
Dew Point: 33°   Wind: 3mph
Humidity: 79%   Direction: 150°SSE
Pressure: 30.11"   Gusts: NA
Location:  42.75°N, 105.01°W
Report Text: KDGW 201153Z AUTO 15003KT CLR 04/01 A3011 RMK AO2 SLP171 T00390006 10089 20011 55004 $
Loading
Personal Weather Stations






























Interactive Weather Map
Tropical Storm Tracking
New forecast layout! Learn more

10-Day Weather Forecast

Advertisements
Track Severe Weather on mobile